sensor_id;sensor_type;location;lat;lon;timestamp;P1;durP1;ratioP1;P2;durP2;ratioP2
24555;SDS011;12725;49.440;10.954;2023-06-19T00:03:45;4.57;;;3.53;;
24555;SDS011;12725;49.440;10.954;2023-06-19T00:07:46;8.65;;;3.55;;
24555;SDS011;12725;49.440;10.954;2023-06-19T00:11:46;4.33;;;3.80;;
24555;SDS011;12725;49.440;10.954;2023-06-19T00:15:46;5.10;;;3.90;;
24555;SDS011;12725;49.440;10.954;2023-06-19T00:19:47;5.88;;;4.38;;
24555;SDS011;12725;49.440;10.954;2023-06-19T00:23:48;4.43;;;3.50;;
24555;SDS011;12725;49.440;10.954;2023-06-19T00:27:49;6.10;;;3.97;;
24555;SDS011;12725;49.440;10.954;2023-06-19T00:31:49;4.60;;;3.20;;
24555;SDS011;12725;49.440;10.954;2023-06-19T00:35:50;5.35;;;3.53;;
24555;SDS011;12725;49.440;10.954;2023-06-19T00:39:50;5.70;;;4.00;;
24555;SDS011;12725;49.440;10.954;2023-06-19T00:43:51;6.20;;;4.13;;
24555;SDS011;12725;49.440;10.954;2023-06-19T00:47:54;4.50;;;3.40;;
24555;SDS011;12725;49.440;10.954;2023-06-19T00:51:55;6.68;;;4.43;;
24555;SDS011;12725;49.440;10.954;2023-06-19T00:55:56;4.57;;;3.55;;
24555;SDS011;12725;49.440;10.954;2023-06-19T00:59:56;4.40;;;3.40;;
24555;SDS011;12725;49.440;10.954;2023-06-19T01:03:57;5.90;;;3.95;;
24555;SDS011;12725;49.440;10.954;2023-06-19T01:12:22;5.43;;;3.42;;
24555;SDS011;12725;49.440;10.954;2023-06-19T01:16:25;5.22;;;4.22;;
24555;SDS011;12725;49.440;10.954;2023-06-19T01:20:26;6.68;;;4.05;;
24555;SDS011;12725;49.440;10.954;2023-06-19T01:24:28;5.90;;;3.95;;
24555;SDS011;12725;49.440;10.954;2023-06-19T01:28:28;6.38;;;4.05;;
24555;SDS011;12725;49.440;10.954;2023-06-19T01:36:40;6.63;;;3.90;;
24555;SDS011;12725;49.440;10.954;2023-06-19T01:40:41;4.60;;;3.50;;
24555;SDS011;12725;49.440;10.954;2023-06-19T01:44:42;5.43;;;4.10;;
24555;SDS011;12725;49.440;10.954;2023-06-19T01:48:42;5.43;;;3.75;;
24555;SDS011;12725;49.440;10.954;2023-06-19T01:52:43;5.37;;;3.57;;
24555;SDS011;12725;49.440;10.954;2023-06-19T01:56:43;7.53;;;4.07;;
24555;SDS011;12725;49.440;10.954;2023-06-19T02:00:43;5.22;;;3.47;;
24555;SDS011;12725;49.440;10.954;2023-06-19T02:04:44;6.53;;;4.53;;
24555;SDS011;12725;49.440;10.954;2023-06-19T02:08:44;7.15;;;4.57;;
24555;SDS011;12725;49.440;10.954;2023-06-19T02:12:45;4.97;;;3.72;;
24555;SDS011;12725;49.440;10.954;2023-06-19T02:16:45;5.50;;;3.70;;
24555;SDS011;12725;49.440;10.954;2023-06-19T02:20:45;5.27;;;3.77;;
24555;SDS011;12725;49.440;10.954;2023-06-19T02:24:46;5.95;;;3.85;;
24555;SDS011;12725;49.440;10.954;2023-06-19T02:28:46;6.77;;;4.37;;
24555;SDS011;12725;49.440;10.954;2023-06-19T02:32:47;8.15;;;4.82;;
24555;SDS011;12725;49.440;10.954;2023-06-19T02:36:47;5.50;;;4.37;;
24555;SDS011;12725;49.440;10.954;2023-06-19T02:40:47;6.45;;;3.92;;
24555;SDS011;12725;49.440;10.954;2023-06-19T02:44:48;5.78;;;4.22;;
24555;SDS011;12725;49.440;10.954;2023-06-19T02:48:48;6.83;;;4.30;;
24555;SDS011;12725;49.440;10.954;2023-06-19T02:52:49;8.50;;;4.97;;
24555;SDS011;12725;49.440;10.954;2023-06-19T02:56:49;4.93;;;3.57;;
24555;SDS011;12725;49.440;10.954;2023-06-19T03:00:50;6.25;;;4.07;;
24555;SDS011;12725;49.440;10.954;2023-06-19T03:04:53;7.80;;;4.97;;
24555;SDS011;12725;49.440;10.954;2023-06-19T03:08:54;6.97;;;5.00;;
24555;SDS011;12725;49.440;10.954;2023-06-19T03:12:54;5.17;;;4.13;;
24555;SDS011;12725;49.440;10.954;2023-06-19T03:16:54;8.68;;;5.20;;
24555;SDS011;12725;49.440;10.954;2023-06-19T03:20:55;8.07;;;5.07;;
24555;SDS011;12725;49.440;10.954;2023-06-19T03:24:55;8.33;;;4.37;;
24555;SDS011;12725;49.440;10.954;2023-06-19T03:28:55;7.00;;;4.78;;
24555;SDS011;12725;49.440;10.954;2023-06-19T03:32:56;7.80;;;5.23;;
24555;SDS011;12725;49.440;10.954;2023-06-19T03:36:56;5.87;;;4.47;;
24555;SDS011;12725;49.440;10.954;2023-06-19T03:40:56;7.07;;;4.77;;
24555;SDS011;12725;49.440;10.954;2023-06-19T03:44:57;6.03;;;4.43;;
24555;SDS011;12725;49.440;10.954;2023-06-19T03:48:57;5.57;;;3.60;;
24555;SDS011;12725;49.440;10.954;2023-06-19T03:52:57;5.67;;;4.30;;
24555;SDS011;12725;49.440;10.954;2023-06-19T03:56:58;6.28;;;4.80;;
24555;SDS011;12725;49.440;10.954;2023-06-19T04:00:58;7.73;;;4.90;;
24555;SDS011;12725;49.440;10.954;2023-06-19T04:04:59;9.03;;;4.60;;
24555;SDS011;12725;49.440;10.954;2023-06-19T04:08:59;7.68;;;4.40;;
24555;SDS011;12725;49.440;10.954;2023-06-19T04:12:59;6.95;;;4.65;;
24555;SDS011;12725;49.440;10.954;2023-06-19T04:17:00;8.02;;;4.97;;
24555;SDS011;12725;49.440;10.954;2023-06-19T04:21:00;9.03;;;5.07;;
24555;SDS011;12725;49.440;10.954;2023-06-19T04:25:01;8.67;;;4.70;;
24555;SDS011;12725;49.440;10.954;2023-06-19T04:29:01;6.67;;;4.80;;
24555;SDS011;12725;49.440;10.954;2023-06-19T04:33:01;8.45;;;4.80;;
24555;SDS011;12725;49.440;10.954;2023-06-19T04:37:02;8.23;;;5.43;;
24555;SDS011;12725;49.440;10.954;2023-06-19T04:41:02;8.48;;;5.93;;
24555;SDS011;12725;49.440;10.954;2023-06-19T04:45:03;6.93;;;4.40;;
24555;SDS011;12725;49.440;10.954;2023-06-19T04:49:07;7.75;;;4.90;;
24555;SDS011;12725;49.440;10.954;2023-06-19T04:53:09;6.70;;;5.03;;
24555;SDS011;12725;49.440;10.954;2023-06-19T04:57:09;10.77;;;4.80;;
24555;SDS011;12725;49.440;10.954;2023-06-19T05:01:10;7.47;;;5.18;;
24555;SDS011;12725;49.440;10.954;2023-06-19T05:05:11;9.40;;;5.13;;
24555;SDS011;12725;49.440;10.954;2023-06-19T05:09:12;11.93;;;4.30;;
24555;SDS011;12725;49.440;10.954;2023-06-19T05:13:12;7.13;;;4.90;;
24555;SDS011;12725;49.440;10.954;2023-06-19T05:17:12;7.45;;;5.15;;
24555;SDS011;12725;49.440;10.954;2023-06-19T05:21:13;9.02;;;5.38;;
24555;SDS011;12725;49.440;10.954;2023-06-19T05:25:13;9.13;;;5.93;;
24555;SDS011;12725;49.440;10.954;2023-06-19T05:29:13;8.60;;;5.60;;
24555;SDS011;12725;49.440;10.954;2023-06-19T05:33:14;9.10;;;5.00;;
24555;SDS011;12725;49.440;10.954;2023-06-19T05:37:16;7.18;;;5.10;;
24555;SDS011;12725;49.440;10.954;2023-06-19T05:41:16;6.68;;;4.35;;
24555;SDS011;12725;49.440;10.954;2023-06-19T05:45:17;5.53;;;4.25;;
24555;SDS011;12725;49.440;10.954;2023-06-19T05:49:17;9.40;;;5.47;;
24555;SDS011;12725;49.440;10.954;2023-06-19T05:53:17;6.50;;;4.80;;
24555;SDS011;12725;49.440;10.954;2023-06-19T05:57:18;7.72;;;4.57;;
24555;SDS011;12725;49.440;10.954;2023-06-19T06:01:21;6.47;;;4.80;;
24555;SDS011;12725;49.440;10.954;2023-06-19T06:05:21;7.30;;;3.75;;
24555;SDS011;12725;49.440;10.954;2023-06-19T06:09:21;6.20;;;4.43;;
24555;SDS011;12725;49.440;10.954;2023-06-19T06:13:22;8.37;;;4.53;;
24555;SDS011;12725;49.440;10.954;2023-06-19T06:17:22;5.10;;;4.00;;
24555;SDS011;12725;49.440;10.954;2023-06-19T06:21:23;10.15;;;5.15;;
24555;SDS011;12725;49.440;10.954;2023-06-19T06:25:23;6.80;;;4.20;;
24555;SDS011;12725;49.440;10.954;2023-06-19T06:29:24;6.50;;;4.17;;
24555;SDS011;12725;49.440;10.954;2023-06-19T06:33:24;6.43;;;3.88;;
24555;SDS011;12725;49.440;10.954;2023-06-19T06:37:25;8.90;;;3.97;;
24555;SDS011;12725;49.440;10.954;2023-06-19T06:41:25;4.93;;;3.90;;
24555;SDS011;12725;49.440;10.954;2023-06-19T06:45:26;5.15;;;4.10;;
24555;SDS011;12725;49.440;10.954;2023-06-19T06:49:26;8.47;;;3.60;;
24555;SDS011;12725;49.440;10.954;2023-06-19T06:53:27;3.37;;;2.97;;
24555;SDS011;12725;49.440;10.954;2023-06-19T06:57:33;5.18;;;3.72;;
24555;SDS011;12725;49.440;10.954;2023-06-19T07:01:34;4.72;;;3.47;;
24555;SDS011;12725;49.440;10.954;2023-06-19T07:05:34;3.97;;;3.33;;
24555;SDS011;12725;49.440;10.954;2023-06-19T07:09:34;4.23;;;3.17;;
24555;SDS011;12725;49.440;10.954;2023-06-19T07:13:35;4.40;;;2.80;;
24555;SDS011;12725;49.440;10.954;2023-06-19T07:17:36;4.93;;;3.00;;
24555;SDS011;12725;49.440;10.954;2023-06-19T07:21:37;3.08;;;2.22;;
24555;SDS011;12725;49.440;10.954;2023-06-19T07:25:38;4.32;;;3.35;;
24555;SDS011;12725;49.440;10.954;2023-06-19T07:29:38;3.63;;;1.98;;
24555;SDS011;12725;49.440;10.954;2023-06-19T07:33:39;2.00;;;1.80;;
24555;SDS011;12725;49.440;10.954;2023-06-19T07:37:39;3.88;;;2.15;;
24555;SDS011;12725;49.440;10.954;2023-06-19T07:41:40;2.05;;;1.83;;
24555;SDS011;12725;49.440;10.954;2023-06-19T07:45:41;4.78;;;1.92;;
24555;SDS011;12725;49.440;10.954;2023-06-19T07:49:41;3.93;;;1.93;;
24555;SDS011;12725;49.440;10.954;2023-06-19T07:53:41;2.08;;;1.88;;
24555;SDS011;12725;49.440;10.954;2023-06-19T07:57:43;2.20;;;1.50;;
24555;SDS011;12725;49.440;10.954;2023-06-19T08:01:44;1.43;;;1.33;;
24555;SDS011;12725;49.440;10.954;2023-06-19T08:05:44;1.30;;;1.02;;
24555;SDS011;12725;49.440;10.954;2023-06-19T08:09:45;3.25;;;1.52;;
24555;SDS011;12725;49.440;10.954;2023-06-19T08:13:45;1.33;;;1.23;;
24555;SDS011;12725;49.440;10.954;2023-06-19T08:17:46;2.05;;;1.60;;
24555;SDS011;12725;49.440;10.954;2023-06-19T08:21:46;2.07;;;1.50;;
24555;SDS011;12725;49.440;10.954;2023-06-19T08:25:47;1.33;;;1.00;;
24555;SDS011;12725;49.440;10.954;2023-06-19T08:29:47;2.20;;;1.60;;
24555;SDS011;12725;49.440;10.954;2023-06-19T08:33:47;3.92;;;1.48;;
24555;SDS011;12725;49.440;10.954;2023-06-19T08:37:51;1.42;;;1.33;;
24555;SDS011;12725;49.440;10.954;2023-06-19T08:41:51;2.70;;;1.67;;
24555;SDS011;12725;49.440;10.954;2023-06-19T08:46:13;2.60;;;1.75;;
24555;SDS011;12725;49.440;10.954;2023-06-19T08:50:20;2.35;;;1.58;;
24555;SDS011;12725;49.440;10.954;2023-06-19T08:54:20;1.13;;;1.02;;
24555;SDS011;12725;49.440;10.954;2023-06-19T08:58:21;2.27;;;1.23;;
24555;SDS011;12725;49.440;10.954;2023-06-19T09:02:23;2.30;;;1.55;;
24555;SDS011;12725;49.440;10.954;2023-06-19T09:06:23;1.60;;;1.50;;
24555;SDS011;12725;49.440;10.954;2023-06-19T09:10:24;2.13;;;1.93;;
24555;SDS011;12725;49.440;10.954;2023-06-19T09:14:31;2.70;;;1.35;;
24555;SDS011;12725;49.440;10.954;2023-06-19T09:18:42;1.48;;;1.38;;
24555;SDS011;12725;49.440;10.954;2023-06-19T09:22:44;3.03;;;1.25;;
24555;SDS011;12725;49.440;10.954;2023-06-19T09:26:44;3.10;;;1.53;;
24555;SDS011;12725;49.440;10.954;2023-06-19T09:34:55;2.00;;;1.63;;
24555;SDS011;12725;49.440;10.954;2023-06-19T09:38:59;1.48;;;1.35;;
24555;SDS011;12725;49.440;10.954;2023-06-19T09:43:00;1.98;;;1.77;;
24555;SDS011;12725;49.440;10.954;2023-06-19T09:47:02;1.95;;;1.73;;
24555;SDS011;12725;49.440;10.954;2023-06-19T09:51:12;3.17;;;1.00;;
24555;SDS011;12725;49.440;10.954;2023-06-19T09:55:24;3.75;;;1.60;;
24555;SDS011;12725;49.440;10.954;2023-06-19T09:59:24;1.25;;;1.13;;
24555;SDS011;12725;49.440;10.954;2023-06-19T10:03:32;1.23;;;1.00;;
24555;SDS011;12725;49.440;10.954;2023-06-19T10:07:33;1.52;;;1.40;;
24555;SDS011;12725;49.440;10.954;2023-06-19T10:11:47;1.65;;;1.50;;
24555;SDS011;12725;49.440;10.954;2023-06-19T10:15:51;1.45;;;1.30;;
24555;SDS011;12725;49.440;10.954;2023-06-19T10:19:51;1.35;;;1.25;;
24555;SDS011;12725;49.440;10.954;2023-06-19T10:23:53;2.50;;;1.60;;
24555;SDS011;12725;49.440;10.954;2023-06-19T10:27:56;1.95;;;1.50;;
24555;SDS011;12725;49.440;10.954;2023-06-19T10:31:56;1.52;;;1.20;;
24555;SDS011;12725;49.440;10.954;2023-06-19T10:35:57;2.50;;;1.70;;
24555;SDS011;12725;49.440;10.954;2023-06-19T10:39:58;2.00;;;1.52;;
24555;SDS011;12725;49.440;10.954;2023-06-19T10:43:59;1.30;;;1.20;;
24555;SDS011;12725;49.440;10.954;2023-06-19T10:48:03;1.27;;;1.17;;
24555;SDS011;12725;49.440;10.954;2023-06-19T10:52:04;1.50;;;1.35;;
24555;SDS011;12725;49.440;10.954;2023-06-19T10:56:05;1.10;;;1.00;;
24555;SDS011;12725;49.440;10.954;2023-06-19T11:00:06;1.40;;;1.30;;
24555;SDS011;12725;49.440;10.954;2023-06-19T11:04:15;1.33;;;1.23;;
24555;SDS011;12725;49.440;10.954;2023-06-19T11:08:19;1.55;;;1.10;;
24555;SDS011;12725;49.440;10.954;2023-06-19T11:12:20;1.35;;;1.25;;
24555;SDS011;12725;49.440;10.954;2023-06-19T11:16:21;1.67;;;1.40;;
24555;SDS011;12725;49.440;10.954;2023-06-19T11:20:21;1.20;;;1.00;;
24555;SDS011;12725;49.440;10.954;2023-06-19T11:24:22;1.30;;;1.08;;
24555;SDS011;12725;49.440;10.954;2023-06-19T11:28:26;1.35;;;1.25;;
24555;SDS011;12725;49.440;10.954;2023-06-19T11:32:30;1.20;;;0.93;;
24555;SDS011;12725;49.440;10.954;2023-06-19T11:36:31;1.45;;;1.23;;
24555;SDS011;12725;49.440;10.954;2023-06-19T11:40:41;1.40;;;1.02;;
24555;SDS011;12725;49.440;10.954;2023-06-19T11:45:01;1.40;;;1.30;;
24555;SDS011;12725;49.440;10.954;2023-06-19T11:49:07;1.77;;;1.27;;
24555;SDS011;12725;49.440;10.954;2023-06-19T11:53:14;1.55;;;1.30;;
24555;SDS011;12725;49.440;10.954;2023-06-19T11:57:15;1.58;;;1.30;;
24555;SDS011;12725;49.440;10.954;2023-06-19T12:01:15;1.20;;;1.10;;
24555;SDS011;12725;49.440;10.954;2023-06-19T12:05:15;2.47;;;1.60;;
24555;SDS011;12725;49.440;10.954;2023-06-19T12:09:17;1.42;;;1.23;;
24555;SDS011;12725;49.440;10.954;2023-06-19T12:13:18;1.95;;;1.52;;
24555;SDS011;12725;49.440;10.954;2023-06-19T12:17:18;1.60;;;1.37;;
24555;SDS011;12725;49.440;10.954;2023-06-19T12:21:18;1.65;;;1.33;;
24555;SDS011;12725;49.440;10.954;2023-06-19T12:25:19;2.00;;;1.70;;
24555;SDS011;12725;49.440;10.954;2023-06-19T12:29:19;3.13;;;1.53;;
24555;SDS011;12725;49.440;10.954;2023-06-19T12:33:20;1.95;;;1.75;;
24555;SDS011;12725;49.440;10.954;2023-06-19T12:37:21;2.40;;;1.80;;
24555;SDS011;12725;49.440;10.954;2023-06-19T12:41:21;1.75;;;1.58;;
24555;SDS011;12725;49.440;10.954;2023-06-19T12:45:22;1.80;;;1.40;;
24555;SDS011;12725;49.440;10.954;2023-06-19T12:49:22;1.43;;;1.33;;
24555;SDS011;12725;49.440;10.954;2023-06-19T12:53:24;4.33;;;2.10;;
24555;SDS011;12725;49.440;10.954;2023-06-19T12:57:28;2.55;;;1.80;;
24555;SDS011;12725;49.440;10.954;2023-06-19T13:01:29;3.07;;;1.83;;
24555;SDS011;12725;49.440;10.954;2023-06-19T13:05:29;2.00;;;1.50;;
24555;SDS011;12725;49.440;10.954;2023-06-19T13:09:30;1.83;;;1.40;;
24555;SDS011;12725;49.440;10.954;2023-06-19T13:13:30;1.70;;;1.50;;
24555;SDS011;12725;49.440;10.954;2023-06-19T13:17:31;2.00;;;1.80;;
24555;SDS011;12725;49.440;10.954;2023-06-19T13:21:31;3.40;;;1.77;;
24555;SDS011;12725;49.440;10.954;2023-06-19T13:25:31;1.93;;;1.70;;
24555;SDS011;12725;49.440;10.954;2023-06-19T13:29:33;1.98;;;1.60;;
24555;SDS011;12725;49.440;10.954;2023-06-19T13:33:34;2.28;;;1.65;;
24555;SDS011;12725;49.440;10.954;2023-06-19T13:37:34;1.70;;;1.60;;
24555;SDS011;12725;49.440;10.954;2023-06-19T13:41:35;2.50;;;1.58;;
24555;SDS011;12725;49.440;10.954;2023-06-19T13:45:36;9.00;;;1.77;;
24555;SDS011;12725;49.440;10.954;2023-06-19T13:49:39;1.85;;;1.45;;
24555;SDS011;12725;49.440;10.954;2023-06-19T13:53:39;1.85;;;1.65;;
24555;SDS011;12725;49.440;10.954;2023-06-19T13:57:40;1.87;;;1.73;;
24555;SDS011;12725;49.440;10.954;2023-06-19T14:01:41;2.28;;;1.65;;
24555;SDS011;12725;49.440;10.954;2023-06-19T14:05:42;2.22;;;1.80;;
24555;SDS011;12725;49.440;10.954;2023-06-19T14:09:44;1.58;;;1.48;;
24555;SDS011;12725;49.440;10.954;2023-06-19T14:13:44;1.87;;;1.63;;
24555;SDS011;12725;49.440;10.954;2023-06-19T14:17:44;2.00;;;1.80;;
24555;SDS011;12725;49.440;10.954;2023-06-19T14:21:44;2.20;;;2.00;;
24555;SDS011;12725;49.440;10.954;2023-06-19T14:25:45;1.80;;;1.53;;
24555;SDS011;12725;49.440;10.954;2023-06-19T14:29:45;1.80;;;1.63;;
24555;SDS011;12725;49.440;10.954;2023-06-19T14:33:45;2.33;;;1.90;;
24555;SDS011;12725;49.440;10.954;2023-06-19T14:37:46;1.93;;;1.73;;
24555;SDS011;12725;49.440;10.954;2023-06-19T14:41:46;2.10;;;1.43;;
24555;SDS011;12725;49.440;10.954;2023-06-19T14:45:46;4.40;;;1.70;;
24555;SDS011;12725;49.440;10.954;2023-06-19T14:49:47;3.03;;;1.83;;
24555;SDS011;12725;49.440;10.954;2023-06-19T14:53:47;1.67;;;1.52;;
24555;SDS011;12725;49.440;10.954;2023-06-19T14:57:48;3.70;;;1.93;;
24555;SDS011;12725;49.440;10.954;2023-06-19T15:01:48;3.73;;;2.53;;
24555;SDS011;12725;49.440;10.954;2023-06-19T15:05:48;2.28;;;1.83;;
24555;SDS011;12725;49.440;10.954;2023-06-19T15:09:49;4.57;;;2.27;;
24555;SDS011;12725;49.440;10.954;2023-06-19T15:13:49;3.90;;;2.83;;
24555;SDS011;12725;49.440;10.954;2023-06-19T15:17:50;4.00;;;2.13;;
24555;SDS011;12725;49.440;10.954;2023-06-19T15:21:50;2.37;;;1.20;;
24555;SDS011;12725;49.440;10.954;2023-06-19T15:25:50;3.27;;;1.90;;
24555;SDS011;12725;49.440;10.954;2023-06-19T15:29:52;7.10;;;1.77;;
24555;SDS011;12725;49.440;10.954;2023-06-19T15:33:52;5.78;;;1.75;;
24555;SDS011;12725;49.440;10.954;2023-06-19T15:37:53;3.67;;;1.70;;
24555;SDS011;12725;49.440;10.954;2023-06-19T15:41:53;3.42;;;1.75;;
24555;SDS011;12725;49.440;10.954;2023-06-19T15:45:54;7.43;;;2.25;;
24555;SDS011;12725;49.440;10.954;2023-06-19T15:49:55;11.13;;;2.30;;
24555;SDS011;12725;49.440;10.954;2023-06-19T15:53:55;2.07;;;1.67;;
24555;SDS011;12725;49.440;10.954;2023-06-19T15:57:56;4.10;;;2.77;;
24555;SDS011;12725;49.440;10.954;2023-06-19T16:01:56;2.43;;;1.83;;
24555;SDS011;12725;49.440;10.954;2023-06-19T16:05:56;2.63;;;1.50;;
24555;SDS011;12725;49.440;10.954;2023-06-19T16:09:57;7.60;;;1.98;;
24555;SDS011;12725;49.440;10.954;2023-06-19T16:13:57;1.38;;;1.23;;
24555;SDS011;12725;49.440;10.954;2023-06-19T16:17:59;3.03;;;1.85;;
24555;SDS011;12725;49.440;10.954;2023-06-19T16:21:59;6.10;;;1.63;;
24555;SDS011;12725;49.440;10.954;2023-06-19T16:26:00;4.57;;;2.13;;
24555;SDS011;12725;49.440;10.954;2023-06-19T16:30:00;2.00;;;1.70;;
24555;SDS011;12725;49.440;10.954;2023-06-19T16:34:02;4.32;;;2.75;;
24555;SDS011;12725;49.440;10.954;2023-06-19T16:38:02;3.20;;;1.83;;
24555;SDS011;12725;49.440;10.954;2023-06-19T16:42:03;4.93;;;2.90;;
24555;SDS011;12725;49.440;10.954;2023-06-19T16:46:04;2.97;;;1.92;;
24555;SDS011;12725;49.440;10.954;2023-06-19T16:50:04;4.38;;;2.63;;
24555;SDS011;12725;49.440;10.954;2023-06-19T16:54:05;3.30;;;1.83;;
24555;SDS011;12725;49.440;10.954;2023-06-19T16:58:05;2.57;;;1.97;;
24555;SDS011;12725;49.440;10.954;2023-06-19T17:02:06;2.90;;;2.07;;
24555;SDS011;12725;49.440;10.954;2023-06-19T17:06:06;4.20;;;2.00;;
24555;SDS011;12725;49.440;10.954;2023-06-19T17:10:06;6.63;;;2.30;;
24555;SDS011;12725;49.440;10.954;2023-06-19T17:14:10;3.75;;;2.92;;
24555;SDS011;12725;49.440;10.954;2023-06-19T17:18:11;3.67;;;2.50;;
24555;SDS011;12725;49.440;10.954;2023-06-19T17:22:11;5.43;;;1.95;;
24555;SDS011;12725;49.440;10.954;2023-06-19T17:26:11;8.70;;;2.20;;
24555;SDS011;12725;49.440;10.954;2023-06-19T17:30:12;2.90;;;1.80;;
24555;SDS011;12725;49.440;10.954;2023-06-19T17:34:12;3.67;;;1.98;;
24555;SDS011;12725;49.440;10.954;2023-06-19T17:38:13;7.15;;;2.83;;
24555;SDS011;12725;49.440;10.954;2023-06-19T17:42:13;6.32;;;2.38;;
24555;SDS011;12725;49.440;10.954;2023-06-19T17:46:13;4.97;;;2.43;;
24555;SDS011;12725;49.440;10.954;2023-06-19T17:50:14;7.47;;;2.17;;
24555;SDS011;12725;49.440;10.954;2023-06-19T17:54:14;5.22;;;2.75;;
24555;SDS011;12725;49.440;10.954;2023-06-19T17:58:16;2.50;;;2.05;;
24555;SDS011;12725;49.440;10.954;2023-06-19T18:02:17;2.80;;;1.77;;
24555;SDS011;12725;49.440;10.954;2023-06-19T18:06:17;2.80;;;1.98;;
24555;SDS011;12725;49.440;10.954;2023-06-19T18:10:18;3.63;;;2.42;;
24555;SDS011;12725;49.440;10.954;2023-06-19T18:14:18;3.73;;;2.40;;
24555;SDS011;12725;49.440;10.954;2023-06-19T18:18:25;7.70;;;3.42;;
24555;SDS011;12725;49.440;10.954;2023-06-19T18:22:25;4.20;;;2.70;;
24555;SDS011;12725;49.440;10.954;2023-06-19T18:26:25;4.25;;;2.92;;
24555;SDS011;12725;49.440;10.954;2023-06-19T18:30:26;5.57;;;3.07;;
24555;SDS011;12725;49.440;10.954;2023-06-19T18:34:27;4.95;;;2.83;;
24555;SDS011;12725;49.440;10.954;2023-06-19T18:38:27;5.50;;;2.60;;
24555;SDS011;12725;49.440;10.954;2023-06-19T18:42:27;6.28;;;3.65;;
24555;SDS011;12725;49.440;10.954;2023-06-19T18:46:29;4.82;;;3.42;;
24555;SDS011;12725;49.440;10.954;2023-06-19T18:50:30;4.43;;;2.75;;
24555;SDS011;12725;49.440;10.954;2023-06-19T18:54:30;4.15;;;2.60;;
24555;SDS011;12725;49.440;10.954;2023-06-19T18:58:30;7.10;;;3.60;;
24555;SDS011;12725;49.440;10.954;2023-06-19T19:02:33;5.65;;;3.08;;
24555;SDS011;12725;49.440;10.954;2023-06-19T19:06:35;5.70;;;3.40;;
24555;SDS011;12725;49.440;10.954;2023-06-19T19:10:36;4.90;;;3.83;;
24555;SDS011;12725;49.440;10.954;2023-06-19T19:14:37;6.40;;;3.40;;
24555;SDS011;12725;49.440;10.954;2023-06-19T19:18:39;5.72;;;2.75;;
24555;SDS011;12725;49.440;10.954;2023-06-19T19:22:39;5.27;;;2.37;;
24555;SDS011;12725;49.440;10.954;2023-06-19T19:26:42;7.03;;;3.08;;
24555;SDS011;12725;49.440;10.954;2023-06-19T19:30:43;6.32;;;3.42;;
24555;SDS011;12725;49.440;10.954;2023-06-19T19:34:44;3.88;;;2.45;;
24555;SDS011;12725;49.440;10.954;2023-06-19T19:38:44;5.00;;;3.00;;
24555;SDS011;12725;49.440;10.954;2023-06-19T19:42:45;3.90;;;2.93;;
24555;SDS011;12725;49.440;10.954;2023-06-19T19:46:45;4.60;;;2.97;;
24555;SDS011;12725;49.440;10.954;2023-06-19T19:50:45;13.07;;;2.87;;
24555;SDS011;12725;49.440;10.954;2023-06-19T19:54:46;4.37;;;3.10;;
24555;SDS011;12725;49.440;10.954;2023-06-19T19:58:46;5.05;;;3.05;;
24555;SDS011;12725;49.440;10.954;2023-06-19T20:02:47;5.35;;;3.50;;
24555;SDS011;12725;49.440;10.954;2023-06-19T20:06:47;5.67;;;2.90;;
24555;SDS011;12725;49.440;10.954;2023-06-19T20:10:48;3.78;;;3.08;;
24555;SDS011;12725;49.440;10.954;2023-06-19T20:14:48;4.40;;;3.33;;
24555;SDS011;12725;49.440;10.954;2023-06-19T20:18:50;6.97;;;2.97;;
24555;SDS011;12725;49.440;10.954;2023-06-19T20:22:50;3.95;;;3.55;;
24555;SDS011;12725;49.440;10.954;2023-06-19T20:26:51;3.97;;;2.93;;
24555;SDS011;12725;49.440;10.954;2023-06-19T20:30:51;6.82;;;3.53;;
24555;SDS011;12725;49.440;10.954;2023-06-19T20:34:52;6.03;;;3.72;;
24555;SDS011;12725;49.440;10.954;2023-06-19T20:38:52;7.13;;;3.37;;
24555;SDS011;12725;49.440;10.954;2023-06-19T20:42:52;7.60;;;3.67;;
24555;SDS011;12725;49.440;10.954;2023-06-19T20:46:53;8.18;;;3.95;;
24555;SDS011;12725;49.440;10.954;2023-06-19T20:50:53;6.85;;;3.92;;
24555;SDS011;12725;49.440;10.954;2023-06-19T20:54:54;4.30;;;3.25;;
24555;SDS011;12725;49.440;10.954;2023-06-19T20:58:54;6.18;;;4.10;;
24555;SDS011;12725;49.440;10.954;2023-06-19T21:02:57;4.82;;;3.38;;
24555;SDS011;12725;49.440;10.954;2023-06-19T21:06:58;9.57;;;3.45;;
24555;SDS011;12725;49.440;10.954;2023-06-19T21:10:59;6.60;;;3.10;;
24555;SDS011;12725;49.440;10.954;2023-06-19T21:15:00;3.92;;;2.90;;
24555;SDS011;12725;49.440;10.954;2023-06-19T21:19:01;4.78;;;3.50;;
24555;SDS011;12725;49.440;10.954;2023-06-19T21:23:02;8.50;;;3.58;;
24555;SDS011;12725;49.440;10.954;2023-06-19T21:27:02;8.68;;;2.83;;
24555;SDS011;12725;49.440;10.954;2023-06-19T21:31:03;4.47;;;3.03;;
24555;SDS011;12725;49.440;10.954;2023-06-19T21:35:04;3.67;;;2.80;;
24555;SDS011;12725;49.440;10.954;2023-06-19T21:39:05;5.45;;;3.15;;
24555;SDS011;12725;49.440;10.954;2023-06-19T21:43:05;5.47;;;3.70;;
24555;SDS011;12725;49.440;10.954;2023-06-19T21:47:05;4.40;;;3.40;;
24555;SDS011;12725;49.440;10.954;2023-06-19T21:51:06;5.65;;;3.70;;
24555;SDS011;12725;49.440;10.954;2023-06-19T21:55:07;6.10;;;3.30;;
24555;SDS011;12725;49.440;10.954;2023-06-19T21:59:08;5.20;;;3.67;;
24555;SDS011;12725;49.440;10.954;2023-06-19T22:03:08;6.03;;;4.03;;
24555;SDS011;12725;49.440;10.954;2023-06-19T22:07:08;6.95;;;2.95;;
24555;SDS011;12725;49.440;10.954;2023-06-19T22:11:09;6.15;;;2.83;;
24555;SDS011;12725;49.440;10.954;2023-06-19T22:15:10;7.60;;;4.03;;
24555;SDS011;12725;49.440;10.954;2023-06-19T22:19:10;8.30;;;3.20;;
24555;SDS011;12725;49.440;10.954;2023-06-19T22:23:10;5.80;;;3.53;;
24555;SDS011;12725;49.440;10.954;2023-06-19T22:27:11;6.97;;;3.60;;
24555;SDS011;12725;49.440;10.954;2023-06-19T22:31:12;5.40;;;2.85;;
24555;SDS011;12725;49.440;10.954;2023-06-19T22:35:12;7.13;;;3.97;;
24555;SDS011;12725;49.440;10.954;2023-06-19T22:39:13;3.20;;;2.55;;
24555;SDS011;12725;49.440;10.954;2023-06-19T22:43:13;5.07;;;2.88;;
24555;SDS011;12725;49.440;10.954;2023-06-19T22:47:14;4.00;;;2.90;;
24555;SDS011;12725;49.440;10.954;2023-06-19T22:51:14;6.82;;;3.42;;
24555;SDS011;12725;49.440;10.954;2023-06-19T22:55:14;5.18;;;3.10;;
24555;SDS011;12725;49.440;10.954;2023-06-19T22:59:15;4.80;;;2.65;;
24555;SDS011;12725;49.440;10.954;2023-06-19T23:03:15;8.47;;;3.53;;
24555;SDS011;12725;49.440;10.954;2023-06-19T23:07:19;10.80;;;4.63;;
24555;SDS011;12725;49.440;10.954;2023-06-19T23:11:19;9.73;;;3.33;;
24555;SDS011;12725;49.440;10.954;2023-06-19T23:15:20;4.18;;;3.15;;
24555;SDS011;12725;49.440;10.954;2023-06-19T23:19:20;4.97;;;3.35;;
24555;SDS011;12725;49.440;10.954;2023-06-19T23:23:21;4.90;;;3.43;;
24555;SDS011;12725;49.440;10.954;2023-06-19T23:27:21;4.80;;;2.95;;
24555;SDS011;12725;49.440;10.954;2023-06-19T23:31:22;6.43;;;3.13;;
24555;SDS011;12725;49.440;10.954;2023-06-19T23:50:13;5.45;;;3.63;;
24555;SDS011;12725;49.440;10.954;2023-06-19T23:54:13;7.85;;;3.40;;
24555;SDS011;12725;49.440;10.954;2023-06-19T23:58:14;11.25;;;3.72;;
